createdAt,value
2022-08-17T00:00:34.981Z,4.30
2022-08-17T00:03:04.574Z,4.43
2022-08-17T00:05:34.695Z,4.63
2022-08-17T00:08:04.359Z,4.30
2022-08-17T00:10:32.587Z,4.30
2022-08-17T00:13:00.753Z,4.47
2022-08-17T00:15:28.808Z,3.80
2022-08-17T00:17:56.817Z,3.70
2022-08-17T00:20:30.486Z,3.30
2022-08-17T00:23:06.793Z,3.23
2022-08-17T00:25:34.788Z,2.80
2022-08-17T00:28:02.857Z,3.40
2022-08-17T00:30:30.973Z,2.67
2022-08-17T00:33:20.975Z,2.93
2022-08-17T00:35:49.925Z,2.70
2022-08-17T00:38:19.324Z,2.77
2022-08-17T00:40:49.014Z,2.50
2022-08-17T00:43:18.524Z,2.63
2022-08-17T00:45:46.512Z,2.53
2022-08-17T00:48:29.105Z,2.80
2022-08-17T00:51:02.045Z,2.83
2022-08-17T00:53:32.494Z,2.60
2022-08-17T00:56:01.687Z,2.67
2022-08-17T00:58:32.995Z,2.90
2022-08-17T01:01:04.249Z,2.07
2022-08-17T01:03:32.472Z,2.70
2022-08-17T01:06:01.096Z,2.70
2022-08-17T01:08:31.720Z,2.37
2022-08-17T01:11:02.248Z,2.70
2022-08-17T01:13:35.472Z,2.47
2022-08-17T01:16:09.588Z,2.40
2022-08-17T01:18:37.595Z,2.47
2022-08-17T01:21:08.671Z,2.67
2022-08-17T01:23:38.073Z,2.40
2022-08-17T01:26:06.656Z,2.40
2022-08-17T01:28:54.437Z,2.70
2022-08-17T01:31:23.311Z,2.30
2022-08-17T01:33:51.290Z,2.50
2022-08-17T01:36:19.312Z,2.17
2022-08-17T01:38:48.728Z,2.33
2022-08-17T01:41:16.926Z,2.10
2022-08-17T01:43:47.125Z,2.07
2022-08-17T01:46:16.750Z,2.07
2022-08-17T01:48:47.450Z,2.30
2022-08-17T01:51:16.143Z,2.50
2022-08-17T01:53:45.670Z,2.20
2022-08-17T01:56:16.655Z,2.20
2022-08-17T01:58:44.680Z,2.20
2022-08-17T02:01:14.798Z,2.50
2022-08-17T02:03:53.243Z,2.57
2022-08-17T02:06:28.501Z,1.97
2022-08-17T02:09:01.820Z,2.47
2022-08-17T02:11:33.753Z,2.43
2022-08-17T02:14:03.360Z,2.20
2022-08-17T02:16:37.703Z,2.50
2022-08-17T02:19:06.688Z,2.40
2022-08-17T02:21:34.675Z,2.23
2022-08-17T02:24:02.667Z,2.33
2022-08-17T02:26:32.078Z,2.33
2022-08-17T02:29:00.106Z,2.20
2022-08-17T02:31:28.221Z,2.50
2022-08-17T02:33:56.895Z,2.50
2022-08-17T02:36:32.292Z,2.40
2022-08-17T02:39:01.587Z,2.37
2022-08-17T02:41:29.684Z,2.53
2022-08-17T02:43:59.088Z,2.37
2022-08-17T02:46:27.213Z,2.10
2022-08-17T02:48:55.217Z,2.00
2022-08-17T02:51:23.268Z,2.40
2022-08-17T02:53:51.256Z,2.50
2022-08-17T02:56:19.281Z,2.33
2022-08-17T02:58:47.508Z,2.17
2022-08-17T03:01:16.988Z,2.17
2022-08-17T03:03:45.051Z,2.20
2022-08-17T03:06:13.046Z,2.53
2022-08-17T03:08:41.034Z,2.53
2022-08-17T03:11:09.095Z,2.20
2022-08-17T03:13:37.071Z,2.17
2022-08-17T03:16:05.440Z,2.33
2022-08-17T03:18:34.815Z,2.40
2022-08-17T03:21:04.444Z,2.53
2022-08-17T03:23:32.848Z,2.57
2022-08-17T03:26:00.977Z,2.73
2022-08-17T03:28:29.391Z,2.73
2022-08-17T03:30:57.342Z,2.57
2022-08-17T03:33:25.336Z,2.60
2022-08-17T03:35:54.746Z,2.70
2022-08-17T03:38:23.282Z,2.87
2022-08-17T03:40:57.256Z,2.63
2022-08-17T03:43:27.625Z,2.80
2022-08-17T03:46:33.980Z,3.40
2022-08-17T03:49:17.940Z,2.53
2022-08-17T03:52:04.692Z,3.10
2022-08-17T03:54:49.741Z,2.87
2022-08-17T03:57:19.292Z,3.10
2022-08-17T03:59:47.583Z,3.00
2022-08-17T04:02:18.904Z,2.87
2022-08-17T04:04:47.044Z,3.30
2022-08-17T04:07:16.401Z,3.43
2022-08-17T04:09:44.986Z,3.13
2022-08-17T04:12:13.578Z,3.27
2022-08-17T04:14:52.776Z,3.10
2022-08-17T04:17:22.680Z,3.03
2022-08-17T04:19:50.698Z,3.23
2022-08-17T04:22:33.039Z,3.03
2022-08-17T04:25:09.594Z,3.30
2022-08-17T04:27:37.711Z,3.60
2022-08-17T04:30:06.993Z,3.30
2022-08-17T04:33:05.447Z,3.27
2022-08-17T04:35:28.561Z,3.43
2022-08-17T04:37:57.978Z,3.53
2022-08-17T04:40:44.420Z,3.50
2022-08-17T04:43:13.774Z,3.40
2022-08-17T04:45:55.148Z,3.30
2022-08-17T04:48:27.922Z,3.20
2022-08-17T04:51:03.992Z,3.60
2022-08-17T04:53:33.330Z,3.40
2022-08-17T04:56:01.280Z,3.80
2022-08-17T04:58:29.581Z,3.67
2022-08-17T05:00:57.689Z,4.00
2022-08-17T05:03:25.724Z,3.90
2022-08-17T05:05:53.773Z,3.70
2022-08-17T05:08:22.146Z,3.63
2022-08-17T05:10:52.105Z,3.63
2022-08-17T05:13:20.968Z,4.17
2022-08-17T05:15:50.307Z,3.60
2022-08-17T05:18:18.361Z,3.90
2022-08-17T05:20:46.776Z,3.77
2022-08-17T05:23:15.878Z,3.50
2022-08-17T05:25:47.731Z,3.73
2022-08-17T05:28:17.645Z,3.50
2022-08-17T05:30:49.275Z,3.33
2022-08-17T05:33:18.860Z,3.43
2022-08-17T05:35:48.558Z,3.20
2022-08-17T05:38:16.688Z,3.20
2022-08-17T05:40:44.827Z,3.60
2022-08-17T05:43:14.807Z,3.83
2022-08-17T05:45:55.768Z,3.57
2022-08-17T05:48:39.046Z,4.13
2022-08-17T05:51:17.005Z,3.93
2022-08-17T05:53:47.663Z,3.47
2022-08-17T05:56:29.266Z,3.33
2022-08-17T05:59:01.534Z,3.70
2022-08-17T06:01:35.543Z,3.30
2022-08-17T06:04:10.642Z,3.07
2022-08-17T06:06:41.301Z,3.00
2022-08-17T06:09:26.608Z,3.03
2022-08-17T06:11:58.770Z,3.30
2022-08-17T06:14:40.436Z,3.20
2022-08-17T06:17:11.604Z,3.10
2022-08-17T06:19:41.179Z,3.23
2022-08-17T06:22:09.399Z,3.13
2022-08-17T06:24:39.092Z,3.13
2022-08-17T06:27:10.196Z,3.10
2022-08-17T06:29:43.936Z,3.20
2022-08-17T06:32:14.452Z,3.50
2022-08-17T06:34:43.728Z,3.10
2022-08-17T06:37:20.264Z,3.28
2022-08-17T06:39:51.745Z,3.50
2022-08-17T06:43:02.454Z,3.53
2022-08-17T06:45:15.283Z,3.07
2022-08-17T06:47:48.459Z,3.17
2022-08-17T06:50:19.045Z,3.17
2022-08-17T06:52:51.902Z,3.07
2022-08-17T06:55:22.483Z,3.10
2022-08-17T06:57:52.214Z,3.40
2022-08-17T07:00:22.361Z,3.00
2022-08-17T07:02:55.405Z,3.30
2022-08-17T07:05:24.801Z,3.90
2022-08-17T07:08:03.115Z,3.67
2022-08-17T07:10:36.491Z,3.33
2022-08-17T07:13:25.736Z,3.00
2022-08-17T07:15:57.145Z,2.70
2022-08-17T07:18:27.755Z,2.10
2022-08-17T07:20:58.633Z,2.07
2022-08-17T07:23:28.796Z,2.00
2022-08-17T07:26:05.182Z,3.20
2022-08-17T07:28:33.184Z,2.60
2022-08-17T07:31:01.192Z,2.20
2022-08-17T07:33:33.304Z,2.80
2022-08-17T07:36:01.720Z,2.90
2022-08-17T07:38:30.452Z,2.90
2022-08-17T07:41:03.895Z,2.60
2022-08-17T07:43:31.969Z,2.50
2022-08-17T07:46:39.359Z,2.47
2022-08-17T07:49:26.212Z,2.10
2022-08-17T07:52:00.452Z,2.07
2022-08-17T07:54:48.386Z,1.70
2022-08-17T07:57:31.350Z,1.50
2022-08-17T08:00:16.122Z,1.65
2022-08-17T08:02:45.877Z,1.30
2022-08-17T08:05:48.710Z,1.35
2022-08-17T08:08:22.638Z,1.23
2022-08-17T08:11:00.319Z,1.17
2022-08-17T08:13:29.669Z,1.25
2022-08-17T08:16:13.347Z,2.00
2022-08-17T08:18:55.338Z,1.13
2022-08-17T08:21:32.377Z,1.50
2022-08-17T08:24:02.505Z,0.98
2022-08-17T08:26:33.354Z,1.10
2022-08-17T08:29:05.912Z,1.10
2022-08-17T08:31:42.634Z,1.23
2022-08-17T08:34:46.335Z,0.88
2022-08-17T08:37:14.748Z,1.30
2022-08-17T08:39:52.790Z,0.80
2022-08-17T08:42:24.721Z,1.38
2022-08-17T08:45:00.852Z,0.82
2022-08-17T08:47:41.584Z,1.00
2022-08-17T08:50:37.599Z,0.95
2022-08-17T08:53:08.544Z,1.02
2022-08-17T08:55:45.411Z,1.30
2022-08-17T08:58:31.344Z,1.40
2022-08-17T09:01:06.220Z,1.00
2022-08-17T09:03:54.113Z,1.33
2022-08-17T09:06:28.700Z,1.40
2022-08-17T09:09:11.505Z,1.05
2022-08-17T09:12:01.442Z,1.08
2022-08-17T09:14:45.402Z,1.00
2022-08-17T09:17:16.565Z,0.98
2022-08-17T09:19:49.138Z,0.82
2022-08-17T09:22:23.960Z,0.77
2022-08-17T09:24:57.293Z,0.70
2022-08-17T09:27:28.336Z,0.70
2022-08-17T09:29:58.847Z,1.00
2022-08-17T09:32:30.134Z,0.77
2022-08-17T09:35:01.548Z,0.77
2022-08-17T09:37:31.973Z,0.63
2022-08-17T09:40:09.711Z,0.80
2022-08-17T09:42:41.302Z,0.65
2022-08-17T09:45:17.971Z,0.70
2022-08-17T09:47:49.568Z,1.73
2022-08-17T09:51:03.160Z,5.20
2022-08-17T09:53:10.005Z,1.02
2022-08-17T09:55:58.005Z,0.80
2022-08-17T09:58:29.427Z,1.10
2022-08-17T10:01:00.377Z,0.70
2022-08-17T10:03:41.421Z,0.80
2022-08-17T10:06:14.334Z,0.70
2022-08-17T10:08:47.146Z,0.98
2022-08-17T10:11:33.752Z,0.80
2022-08-17T10:14:36.018Z,1.08
2022-08-17T10:16:57.007Z,0.90
2022-08-17T10:19:26.861Z,0.68
2022-08-17T10:22:32.436Z,0.90
2022-08-17T10:25:22.994Z,0.70
2022-08-17T10:27:55.589Z,1.70
2022-08-17T10:30:27.601Z,6.43
2022-08-17T10:32:56.747Z,1.00
2022-08-17T10:35:34.136Z,0.95
2022-08-17T10:38:27.261Z,0.95
2022-08-17T10:40:57.300Z,3.53
2022-08-17T10:43:44.722Z,1.13
2022-08-17T10:46:52.722Z,1.00
2022-08-17T10:49:32.663Z,0.82
2022-08-17T10:52:01.837Z,1.88
2022-08-17T10:54:40.995Z,1.60
2022-08-17T10:57:40.390Z,1.75
2022-08-17T11:00:16.073Z,1.90
2022-08-17T11:02:50.978Z,1.75
2022-08-17T11:05:44.118Z,1.63
2022-08-17T11:08:59.578Z,1.60
2022-08-17T11:11:47.883Z,2.03
2022-08-17T11:14:24.025Z,2.08
2022-08-17T11:17:04.900Z,3.60
2022-08-17T11:19:58.810Z,3.22
2022-08-17T11:22:57.893Z,3.85
2022-08-17T11:25:34.350Z,3.67
2022-08-17T11:28:08.426Z,4.38
2022-08-17T11:30:46.952Z,3.72
2022-08-17T11:33:55.695Z,3.47
2022-08-17T11:36:45.459Z,4.05
2022-08-17T11:39:23.541Z,4.72
2022-08-17T11:41:56.383Z,4.28
2022-08-17T11:44:37.553Z,4.30
2022-08-17T11:47:35.787Z,4.57
2022-08-17T11:50:35.000Z,4.60
2022-08-17T11:53:04.595Z,4.20
2022-08-17T11:56:04.437Z,3.97
2022-08-17T11:58:38.538Z,3.88
2022-08-17T12:01:07.617Z,4.07
2022-08-17T12:03:53.752Z,4.38
2022-08-17T12:06:34.727Z,4.25
2022-08-17T12:09:08.895Z,4.43
2022-08-17T12:12:11.369Z,6.20
2022-08-17T12:15:05.937Z,4.65
2022-08-17T12:17:39.567Z,5.00
2022-08-17T12:20:12.406Z,4.47
2022-08-17T12:22:44.813Z,5.32
2022-08-17T12:25:16.478Z,4.78
2022-08-17T12:28:04.839Z,4.40
2022-08-17T12:30:34.439Z,4.40
2022-08-17T12:33:02.561Z,3.88
2022-08-17T12:35:33.135Z,4.63
2022-08-17T12:38:03.074Z,4.80
2022-08-17T12:40:33.013Z,4.20
2022-08-17T12:43:02.073Z,4.40
2022-08-17T12:45:33.660Z,4.75
2022-08-17T12:48:02.753Z,4.10
2022-08-17T12:50:32.052Z,4.10
2022-08-17T12:53:02.571Z,4.30
2022-08-17T12:55:35.717Z,3.92
2022-08-17T12:58:03.734Z,4.10
2022-08-17T13:00:32.936Z,5.13
2022-08-17T13:03:01.486Z,4.63
2022-08-17T13:05:31.107Z,4.30
2022-08-17T13:08:00.284Z,4.82
2022-08-17T13:10:32.879Z,4.10
2022-08-17T13:13:05.433Z,4.13
2022-08-17T13:15:36.920Z,4.15
2022-08-17T13:18:07.689Z,3.80
2022-08-17T13:20:35.974Z,3.95
2022-08-17T13:23:12.061Z,4.00
2022-08-17T13:25:40.748Z,3.28
2022-08-17T13:28:18.620Z,4.30
2022-08-17T13:31:22.307Z,3.92
2022-08-17T13:33:50.349Z,3.63
2022-08-17T13:36:28.210Z,4.20
2022-08-17T13:39:06.913Z,4.55
2022-08-17T13:41:36.334Z,4.07
2022-08-17T13:44:34.081Z,4.22
2022-08-17T13:47:02.362Z,4.57
2022-08-17T13:49:48.129Z,4.25
2022-08-17T13:52:33.472Z,4.97
2022-08-17T13:55:01.860Z,4.22
2022-08-17T13:57:29.860Z,4.55
2022-08-17T14:00:10.325Z,4.32
2022-08-17T14:02:38.412Z,4.25
2022-08-17T14:05:06.800Z,4.50
2022-08-17T14:07:35.928Z,4.45
2022-08-17T14:10:07.402Z,4.13
2022-08-17T14:12:35.776Z,4.22
2022-08-17T14:15:05.974Z,4.70
2022-08-17T14:17:38.636Z,4.20
2022-08-17T14:20:09.447Z,4.35
2022-08-17T14:22:38.594Z,4.43
2022-08-17T14:25:08.570Z,4.28
2022-08-17T14:27:51.895Z,6.20
2022-08-17T14:30:24.356Z,4.38
2022-08-17T14:32:52.956Z,4.65
2022-08-17T14:35:22.373Z,4.80
2022-08-17T14:37:50.675Z,4.55
2022-08-17T14:40:20.865Z,4.40
2022-08-17T14:42:49.895Z,4.35
2022-08-17T14:45:31.812Z,4.68
2022-08-17T14:48:04.196Z,4.43
2022-08-17T14:50:35.565Z,4.40
2022-08-17T14:53:04.632Z,5.20
2022-08-17T14:55:32.704Z,4.53
2022-08-17T14:58:00.827Z,4.55
2022-08-17T15:00:28.808Z,5.00
2022-08-17T15:02:58.404Z,4.75
2022-08-17T15:05:31.671Z,4.50
2022-08-17T15:07:59.899Z,8.70
2022-08-17T15:10:28.041Z,4.65
2022-08-17T15:12:56.243Z,4.45
2022-08-17T15:15:24.212Z,4.95
2022-08-17T15:17:52.439Z,9.38
2022-08-17T15:20:21.918Z,4.80
2022-08-17T15:22:55.004Z,5.20
2022-08-17T15:25:23.369Z,5.00
2022-08-17T15:27:51.872Z,4.57
2022-08-17T15:30:20.301Z,4.60
2022-08-17T15:32:54.143Z,4.20
2022-08-17T15:35:27.321Z,3.92
2022-08-17T15:38:07.845Z,4.40
2022-08-17T15:40:38.648Z,3.95
2022-08-17T15:43:07.403Z,4.18
2022-08-17T15:45:35.498Z,4.10
2022-08-17T15:48:03.828Z,4.30
2022-08-17T15:50:32.030Z,3.83
2022-08-17T15:53:01.738Z,4.22
2022-08-17T15:55:30.497Z,4.03
2022-08-17T15:57:58.579Z,5.55
2022-08-17T16:00:28.446Z,4.47
2022-08-17T16:03:16.041Z,4.88
2022-08-17T16:05:44.922Z,5.20
2022-08-17T16:08:20.731Z,4.10
2022-08-17T16:10:49.391Z,3.95
2022-08-17T16:13:18.192Z,4.60
2022-08-17T16:15:56.633Z,4.20
2022-08-17T16:18:26.455Z,3.78
2022-08-17T16:20:55.111Z,3.90
2022-08-17T16:23:24.561Z,3.83
2022-08-17T16:25:54.272Z,3.72
2022-08-17T16:28:35.773Z,3.63
2022-08-17T16:31:04.147Z,3.60
2022-08-17T16:33:32.568Z,4.05
2022-08-17T16:36:01.089Z,4.00
2022-08-17T16:38:30.607Z,3.63
2022-08-17T16:40:58.637Z,3.90
2022-08-17T16:43:26.667Z,4.03
2022-08-17T16:45:54.698Z,3.97
2022-08-17T16:48:22.710Z,4.15
2022-08-17T16:51:03.230Z,4.07
2022-08-17T16:53:33.928Z,4.38
2022-08-17T16:56:01.943Z,4.10
2022-08-17T16:58:30.154Z,4.18
2022-08-17T17:00:59.485Z,5.00
2022-08-17T17:03:28.036Z,4.63
2022-08-17T17:06:01.158Z,4.50
2022-08-17T17:08:34.800Z,4.88
2022-08-17T17:11:09.017Z,4.35
2022-08-17T17:13:40.476Z,4.00
2022-08-17T17:16:15.695Z,3.83
2022-08-17T17:18:44.879Z,3.80
2022-08-17T17:21:14.509Z,4.10
2022-08-17T17:23:51.505Z,4.38
2022-08-17T17:26:27.293Z,4.53
2022-08-17T17:29:02.157Z,4.10
2022-08-17T17:31:33.953Z,4.30
2022-08-17T17:34:04.018Z,4.32
2022-08-17T17:36:36.455Z,4.57
2022-08-17T17:39:08.326Z,4.75
2022-08-17T17:41:40.941Z,4.90
2022-08-17T17:44:10.954Z,5.05
2022-08-17T17:46:41.050Z,5.47
2022-08-17T17:49:11.231Z,5.15
2022-08-17T17:51:59.697Z,5.90
2022-08-17T17:54:39.454Z,5.78
2022-08-17T17:57:11.008Z,5.43
2022-08-17T17:59:44.111Z,5.57
2022-08-17T18:02:38.956Z,5.47
2022-08-17T18:05:11.435Z,5.88
2022-08-17T18:07:42.140Z,5.65
2022-08-17T18:10:29.871Z,7.25
2022-08-17T18:13:00.961Z,6.38
2022-08-17T18:15:31.472Z,5.63
2022-08-17T18:18:04.269Z,5.35
2022-08-17T18:20:53.086Z,5.93
2022-08-17T18:23:27.776Z,5.93
2022-08-17T18:25:58.809Z,5.43
2022-08-17T18:28:28.447Z,6.15
2022-08-17T18:31:07.943Z,6.20
2022-08-17T18:33:36.153Z,5.82
2022-08-17T18:36:04.608Z,6.13
2022-08-17T18:38:33.929Z,5.88
2022-08-17T18:41:20.538Z,5.40
2022-08-17T18:44:00.233Z,5.97
2022-08-17T18:46:30.153Z,6.10
2022-08-17T18:48:59.713Z,6.38
2022-08-17T18:51:41.780Z,5.70
2022-08-17T18:54:16.761Z,5.65
2022-08-17T18:56:49.647Z,6.68
2022-08-17T18:59:26.607Z,5.90
2022-08-17T19:02:16.028Z,6.28
2022-08-17T19:05:03.349Z,7.45
2022-08-17T19:07:32.482Z,6.43
2022-08-17T19:10:06.870Z,6.45
2022-08-17T19:12:39.137Z,6.68
2022-08-17T19:15:08.606Z,6.60
2022-08-17T19:17:39.278Z,7.30
2022-08-17T19:20:11.864Z,6.57
2022-08-17T19:22:53.650Z,6.70
2022-08-17T19:25:24.031Z,5.97
2022-08-17T19:27:59.141Z,6.57
2022-08-17T19:30:27.831Z,6.13
2022-08-17T19:32:57.046Z,7.38
2022-08-17T19:35:26.082Z,7.78
2022-08-17T19:38:02.696Z,7.10
2022-08-17T19:40:52.208Z,6.07
2022-08-17T19:43:24.851Z,6.22
2022-08-17T19:45:58.367Z,6.20
2022-08-17T19:48:35.498Z,6.13
2022-08-17T19:51:06.600Z,6.20
2022-08-17T19:54:02.061Z,6.40
2022-08-17T19:56:27.515Z,6.13
2022-08-17T19:59:01.163Z,6.32
2022-08-17T20:01:35.320Z,6.50
2022-08-17T20:04:08.037Z,6.38
2022-08-17T20:06:38.333Z,6.57
2022-08-17T20:09:19.289Z,6.72
2022-08-17T20:11:48.792Z,6.63
2022-08-17T20:14:20.396Z,6.40
2022-08-17T20:16:48.447Z,6.45
2022-08-17T20:19:23.848Z,6.80
2022-08-17T20:21:55.232Z,6.45
2022-08-17T20:24:26.609Z,6.43
2022-08-17T20:26:58.489Z,6.53
2022-08-17T20:29:39.694Z,6.60
2022-08-17T20:32:19.459Z,6.88
2022-08-17T20:34:48.348Z,7.05
2022-08-17T20:37:31.194Z,7.43
2022-08-17T20:40:25.958Z,7.20
2022-08-17T20:42:53.968Z,7.03
2022-08-17T20:45:53.769Z,7.28
2022-08-17T20:48:37.536Z,6.88
2022-08-17T20:51:28.219Z,7.38
2022-08-17T20:54:37.760Z,7.32
2022-08-17T20:57:06.167Z,7.10
2022-08-17T20:59:59.400Z,7.40
2022-08-17T21:02:29.470Z,6.68
2022-08-17T21:05:30.060Z,7.57
2022-08-17T21:07:59.924Z,7.53
2022-08-17T21:10:35.617Z,8.02
2022-08-17T21:13:36.836Z,7.50
2022-08-17T21:16:08.941Z,7.45
2022-08-17T21:18:41.891Z,7.30
2022-08-17T21:21:17.882Z,7.68
2022-08-17T21:24:06.286Z,7.45
2022-08-17T21:26:50.491Z,7.55
2022-08-17T21:29:31.827Z,7.55
2022-08-17T21:32:24.635Z,7.10
2022-08-17T21:35:28.625Z,7.43
2022-08-17T21:38:00.150Z,6.88
2022-08-17T21:40:29.407Z,6.53
2022-08-17T21:43:00.419Z,6.70
2022-08-17T21:45:31.273Z,6.75
2022-08-17T21:48:11.192Z,6.97
2022-08-17T21:50:41.723Z,6.88
2022-08-17T21:53:10.001Z,7.50
2022-08-17T21:55:38.044Z,6.82
2022-08-17T21:58:14.073Z,6.47
2022-08-17T22:00:44.442Z,6.70
2022-08-17T22:03:23.729Z,8.15
2022-08-17T22:05:53.185Z,8.00
2022-08-17T22:08:22.388Z,7.40
2022-08-17T22:10:51.336Z,6.40
2022-08-17T22:13:21.712Z,6.53
2022-08-17T22:15:51.781Z,6.95
2022-08-17T22:18:21.387Z,6.70
2022-08-17T22:20:53.462Z,7.07
2022-08-17T22:23:45.477Z,6.63
2022-08-17T22:26:14.535Z,6.60
2022-08-17T22:28:45.612Z,6.70
2022-08-17T22:31:14.789Z,6.78
2022-08-17T22:33:44.990Z,6.63
2022-08-17T22:36:26.923Z,6.90
2022-08-17T22:38:59.118Z,6.57
2022-08-17T22:41:36.949Z,6.47
2022-08-17T22:44:10.242Z,6.55
2022-08-17T22:46:42.845Z,6.22
2022-08-17T22:49:10.876Z,6.57
2022-08-17T22:51:38.938Z,6.90
2022-08-17T22:54:34.417Z,6.50
2022-08-17T22:57:22.085Z,6.60
2022-08-17T22:59:51.192Z,6.60
2022-08-17T23:02:24.422Z,6.63
2022-08-17T23:04:54.513Z,7.10
2022-08-17T23:07:22.571Z,6.63
2022-08-17T23:09:52.836Z,6.53
2022-08-17T23:12:24.481Z,6.38
2022-08-17T23:14:56.890Z,6.68
2022-08-17T23:17:24.979Z,6.55
2022-08-17T23:19:53.132Z,6.43
2022-08-17T23:22:21.096Z,6.45
2022-08-17T23:24:50.611Z,5.93
2022-08-17T23:27:20.061Z,6.82
2022-08-17T23:29:48.694Z,6.65
2022-08-17T23:32:17.574Z,6.18
2022-08-17T23:34:48.167Z,6.80
2022-08-17T23:37:16.821Z,6.40
2022-08-17T23:39:45.745Z,6.45
2022-08-17T23:42:15.990Z,7.05
2022-08-17T23:44:45.363Z,6.90
2022-08-17T23:47:13.411Z,7.10
2022-08-17T23:49:41.401Z,6.53
2022-08-17T23:52:12.639Z,6.82
2022-08-17T23:54:44.688Z,7.07
2022-08-17T23:57:13.186Z,7.25
2022-08-17T23:59:41.264Z,7.50
